Chadstone Weather > Observations for 24/03/21

Select Day:



Observations
Time Temp Hum DP Wind Gust Dir Rain >9am Press
C % C kph kph mm hPa
00:00 18.3 95 17.5 0.0 0.0 N 0.3 988.1
00:10 18.3 96 17.7 0.6 5.0 W 0.3 988.1
00:20 18.4 96 17.8 0.7 5.0 W 0.3 988.1
00:30 18.4 96 17.8 0.0 3.6 W 0.3 987.9
00:40 18.4 96 17.8 0.0 1.1 W 0.3 987.9
00:50 18.2 96 17.6 0.0 0.0 N 0.3 987.8
01:00 18.2 96 17.6 0.0 0.0 N 0.3 987.7
01:10 18.3 97 17.8 0.0 0.0 N 0.3 987.6
01:20 18.4 97 17.9 0.0 0.0 N 0.3 987.6
01:30 18.4 97 17.9 0.0 0.0 N 0.3 987.6
01:40 18.5 97 18.0 0.0 3.6 W 0.3 987.5
01:50 18.5 97 18.0 0.2 3.6 W 0.3 987.5
02:00 18.5 97 18.0 1.5 8.6 W 0.3 987.4
02:10 18.6 97 18.1 1.4 8.6 W 0.3 987.4
02:20 18.6 97 18.1 0.7 7.2 WSW 0.3 987.5
02:30 18.6 98 18.3 0.9 7.2 W 0.3 987.5
02:40 18.5 97 18.0 3.9 11.2 WNW 0.9 987.4
02:50 18.4 97 17.9 2.9 8.6 W 1.5 987.4
03:00 18.3 98 18.0 1.7 8.6 WSW 1.8 987.4
03:10 18.1 98 17.8 3.8 8.6 W 1.8 987.3
03:20 18.0 98 17.7 3.7 9.7 W 2.1 987.4
03:30 17.9 97 17.4 3.3 11.2 WNW 2.1 987.3
03:40 17.7 97 17.2 4.1 12.2 WNW 2.1 987.3
03:50 17.7 97 17.2 3.2 7.2 NW 2.4 987.3
04:00 17.7 97 17.2 0.7 8.6 WNW 2.4 987.3
04:10 17.7 97 17.2 0.4 5.0 W 2.4 987.3
04:20 17.7 97 17.2 1.5 6.1 W 2.4 987.3
04:30 17.7 97 17.2 1.4 6.1 W 2.7 987.3
04:40 17.6 97 17.1 0.7 5.0 WNW 3.0 987.2
04:50 17.7 97 17.2 0.0 3.6 WNW 3.3 987.1
05:00 17.6 97 17.1 0.0 0.0 N 3.3 987.2
05:10 17.6 97 17.1 0.0 0.0 N 3.3 987.1
05:20 17.6 97 17.1 0.0 0.0 N 3.3 987.1
05:30 17.6 97 17.1 0.0 0.0 N 3.3 987.1
05:40 17.6 97 17.1 0.0 0.0 N 3.3 987.1
05:50 17.5 97 17.0 0.0 0.0 N 3.3 987.2
06:00 17.5 97 17.0 0.0 0.0 N 3.3 987.4
06:10 17.5 97 17.0 0.0 0.0 N 3.3 987.5
06:20 17.5 97 17.0 0.0 0.0 N 3.3 987.4
06:30 17.5 97 17.0 0.0 0.0 N 3.3 987.5
06:40 17.5 97 17.0 0.0 0.0 N 3.3 987.6
06:50 17.5 97 17.0 0.0 0.0 N 3.6 987.5
07:00 17.4 97 16.9 0.0 0.0 N 3.6 987.5
07:10 17.4 97 16.9 0.0 0.0 N 3.6 987.4
07:20 17.4 97 16.9 0.0 0.0 N 3.6 987.6
07:30 17.5 97 17.0 0.0 0.0 N 3.6 987.7
07:40 17.5 97 17.0 0.0 0.0 N 3.6 987.7
07:50 17.4 97 16.9 0.0 0.0 N 3.6 987.7
08:00 17.5 97 17.0 0.0 0.0 N 3.6 987.8
08:10 17.5 97 17.0 0.0 0.0 N 3.6 987.8
08:20 17.5 97 17.0 0.0 0.0 N 3.6 987.8
08:30 17.6 97 17.1 0.0 0.0 N 3.6 987.9
08:40 17.6 97 17.1 0.0 0.0 N 3.6 987.8
08:50 17.7 97 17.2 0.0 0.0 N 3.6 987.7
09:00 17.7 97 17.2 0.0 0.0 N 3.6 987.9
09:10 17.9 97 17.4 0.9 8.6 WSW 3.6 987.9
09:20 17.9 97 17.4 3.6 12.2 W 3.6 987.8
09:30 17.9 97 17.4 2.8 8.6 WNW 3.6 988.0
09:40 17.9 97 17.4 1.7 9.7 WSW 3.6 988.0
09:50 18.0 99 17.9 1.4 7.2 W 3.6 988.2
10:00 18.0 99 17.9 2.2 7.2 SW 0.0 988.1
10:10 18.3 99 18.2 2.6 7.2 WNW 0.0 988.1
10:20 18.5 99 18.4 1.6 8.6 WSW 0.0 988.3
10:30 18.4 99 18.3 2.4 7.2 S 0.0 988.2
10:40 18.5 99 18.4 1.0 9.7 WNW 0.0 988.0
10:50 18.7 99 18.6 1.1 7.2 W 0.0 988.0
11:00 18.9 99 18.8 0.6 7.2 WNW 0.0 988.0
11:10 18.9 99 18.8 1.6 8.6 SW 0.0 988.0
11:20 18.7 99 18.6 0.0 2.5 SSW 0.0 988.0
11:30 18.8 99 18.7 0.6 7.2 S 0.0 987.9
11:40 19.2 99 19.1 0.9 7.2 S 0.0 987.8
11:50 19.3 99 19.2 1.3 6.1 SSE 0.0 987.8
12:00 19.4 99 19.3 4.2 17.3 SE 0.0 987.6
12:10 19.6 99 19.5 1.7 13.3 SW 0.0 987.5
12:20 20.0 97 19.5 2.1 11.2 SSW 0.0 987.6
12:30 20.2 96 19.6 1.9 11.2 SSE 0.0 987.6
12:40 20.4 94 19.4 1.8 8.6 SW 0.0 987.5
12:50 20.3 93 19.1 2.5 8.6 SSW 0.0 987.3
13:00 20.5 91 19.0 2.1 11.2 SW 0.0 987.2
13:10 20.4 89 18.5 3.7 11.2 WSW 0.0 987.2
13:20 20.3 88 18.3 2.5 12.2 S 0.0 987.1
13:30 20.2 89 18.3 3.1 12.2 SSW 0.0 987.1
13:40 20.1 91 18.6 2.4 12.2 SSE 0.3 987.1
13:50 20.4 93 19.2 2.8 9.7 SSW 0.3 987.0
14:00 20.4 91 18.9 2.7 14.8 S 0.3 986.9
14:10 20.5 90 18.8 4.3 18.4 SSE 0.3 986.8
14:20 20.3 88 18.3 2.6 13.3 W 0.3 986.7
14:30 20.4 88 18.4 3.7 15.8 SSW 0.3 986.7
14:40 20.3 87 18.1 1.7 8.6 SSW 0.3 986.7
14:50 20.0 88 18.0 3.2 12.2 SE 0.3 986.6
15:00 19.7 90 18.0 4.1 18.4 S 0.3 986.7
15:10 19.5 91 18.0 3.7 18.4 SSW 0.3 986.7
15:20 19.5 91 18.0 2.7 14.8 SSW 0.3 986.6
15:30 19.9 91 18.4 2.2 9.7 SSE 0.3 986.6
15:40 20.0 90 18.3 1.9 8.6 SSW 0.3 986.6
15:50 20.0 88 18.0 2.6 13.3 SE 0.3 986.6
16:00 19.8 88 17.8 3.7 13.3 SW 0.3 986.5
16:10 19.8 88 17.8 2.4 14.8 SSW 0.3 986.6
16:20 19.8 88 17.8 4.1 14.8 S 0.3 986.6
16:30 19.8 88 17.8 2.5 9.7 SSE 0.3 986.7
16:40 19.5 87 17.3 4.7 13.3 SSE 0.3 986.8
16:50 19.4 88 17.4 2.7 11.2 SE 0.3 986.8
17:00 19.2 88 17.2 4.8 15.8 SSE 0.3 986.9
17:10 19.0 88 17.0 3.8 14.8 SW 0.3 987.0
17:20 19.0 88 17.0 4.7 12.2 WSW 0.3 987.1
17:30 19.2 88 17.2 2.0 11.2 S 0.3 987.2
17:40 19.0 88 17.0 2.9 11.2 SW 0.3 987.5
17:50 18.8 89 17.0 3.0 11.2 SSW 0.3 987.6
18:00 18.6 89 16.8 3.9 15.8 WSW 0.3 987.8
18:10 18.4 90 16.7 0.8 8.6 S 0.3 987.9
18:20 18.4 91 16.9 1.7 9.7 ESE 0.3 987.9
18:30 18.4 91 16.9 4.0 15.8 SW 0.3 988.1
18:40 18.4 91 16.9 1.8 12.2 SSE 0.3 988.3
18:50 18.3 91 16.8 2.2 8.6 S 0.3 988.4
19:00 18.3 91 16.8 3.6 11.2 SW 0.3 988.4
19:10 18.3 91 16.8 2.2 8.6 SW 0.3 988.6
19:20 18.0 91 16.5 1.0 8.6 S 0.3 988.6
19:30 17.9 92 16.6 0.5 6.1 SSW 0.3 988.7
19:40 17.7 92 16.4 0.6 5.0 SW 0.3 988.7
19:50 17.6 92 16.3 0.4 5.0 SW 0.3 988.7
20:00 17.7 92 16.4 0.2 5.0 SSW 0.3 988.7
20:10 17.8 92 16.5 0.2 5.0 SSW 0.3 988.8
20:20 17.9 92 16.6 1.6 7.2 SW 0.3 988.8
20:30 18.0 93 16.9 0.6 5.0 S 0.3 988.9
20:40 18.0 93 16.9 0.7 5.0 SW 0.3 989.0
20:50 18.0 93 16.9 0.2 5.0 SW 0.3 989.1
21:00 18.1 93 17.0 0.3 6.1 SW 0.3 989.4
21:10 18.2 93 17.1 1.5 7.2 WSW 0.3 989.6
21:20 18.2 94 17.2 1.3 9.7 WNW 0.3 989.5
21:30 18.1 93 17.0 1.9 8.6 WSW 0.3 989.7
21:40 18.1 93 17.0 1.8 12.2 SW 0.3 989.7
21:50 18.1 92 16.8 2.9 7.2 SW 0.3 989.8
22:00 18.1 92 16.8 2.0 12.2 SSW 0.3 989.9
22:10 18.1 91 16.6 2.1 8.6 WSW 0.3 990.0
22:20 18.0 91 16.5 0.9 8.6 W 0.3 990.2
22:30 17.8 91 16.3 2.5 14.8 WSW 0.6 990.1
22:40 17.7 92 16.4 1.6 8.6 WSW 0.6 990.1
22:50 17.7 92 16.4 1.6 9.7 W 0.6 990.1
23:00 17.7 92 16.4 2.2 8.6 SSW 0.6 990.2
23:10 17.7 93 16.6 2.3 11.2 SW 0.6 990.1
23:20 17.7 93 16.6 0.6 5.0 S 0.6 990.1
23:30 17.7 93 16.6 1.9 9.7 SSW 0.6 990.1
23:40 17.7 93 16.6 0.6 5.0 SSW 1.2 990.3
23:50 17.5 93 16.4 1.8 9.7 SW 1.2 990.1